createdAt,value
2018-03-02T00:00:05.474Z,94490.95
2018-03-02T00:02:32.027Z,94457.39
2018-03-02T00:04:58.602Z,94465.53
2018-03-02T00:07:25.160Z,94483.49
2018-03-02T00:09:51.777Z,94483.94
2018-03-02T00:12:18.382Z,94448.31
2018-03-02T00:14:44.948Z,94438.55
2018-03-02T00:17:11.504Z,94471.34
2018-03-02T00:19:38.097Z,94476.13
2018-03-02T00:22:04.619Z,94436.58
2018-03-02T00:24:31.216Z,94421.55
2018-03-02T00:26:57.777Z,94430.20
2018-03-02T00:29:24.372Z,94469.14
2018-03-02T00:31:50.933Z,94454.99
2018-03-02T00:34:17.493Z,94425.23
2018-03-02T00:36:44.049Z,94413.05
2018-03-02T00:39:10.603Z,94431.36
2018-03-02T00:41:37.161Z,94437.87
2018-03-02T00:44:03.726Z,94401.59
2018-03-02T00:46:30.321Z,94433.91
2018-03-02T00:48:56.872Z,94439.19
2018-03-02T00:51:23.439Z,94417.56
2018-03-02T00:53:50.000Z,94418.88
2018-03-02T00:56:16.556Z,94407.84
2018-03-02T00:58:43.166Z,94395.74
2018-03-02T01:01:09.726Z,94416.56
2018-03-02T01:03:36.288Z,94390.94
2018-03-02T01:06:02.879Z,94403.12
2018-03-02T01:08:29.527Z,94396.50
2018-03-02T01:10:56.108Z,94380.35
2018-03-02T01:13:22.663Z,94395.55
2018-03-02T01:15:49.265Z,94370.28
2018-03-02T01:18:15.861Z,94391.13
2018-03-02T01:20:42.414Z,94381.32
2018-03-02T01:23:08.990Z,94370.55
2018-03-02T01:25:35.548Z,94370.17
2018-03-02T01:28:02.110Z,94385.48
2018-03-02T01:30:28.672Z,94376.32
2018-03-02T01:32:55.277Z,94349.83
2018-03-02T01:35:21.880Z,94366.02
2018-03-02T01:37:48.433Z,94386.09
2018-03-02T01:40:14.995Z,94314.80
2018-03-02T01:42:41.608Z,94352.14
2018-03-02T01:45:08.179Z,94363.66
2018-03-02T01:47:34.740Z,94360.35
2018-03-02T01:50:01.343Z,94373.65
2018-03-02T01:52:27.906Z,94318.17
2018-03-02T01:54:54.465Z,94368.41
2018-03-02T01:57:21.021Z,94365.00
2018-03-02T01:59:47.587Z,94328.94
2018-03-02T02:02:14.175Z,94363.88
2018-03-02T02:04:40.728Z,94376.40
2018-03-02T02:07:07.337Z,94293.03
2018-03-02T02:09:33.917Z,94344.30
2018-03-02T02:12:00.474Z,94350.25
2018-03-02T02:14:27.037Z,94325.26
2018-03-02T02:16:53.595Z,94333.73
2018-03-02T02:19:20.165Z,94328.31
2018-03-02T02:21:46.735Z,94368.05
2018-03-02T02:24:13.299Z,94285.24
2018-03-02T02:26:39.854Z,94332.35
2018-03-02T02:29:06.412Z,94316.47
2018-03-02T02:31:32.971Z,94294.52
2018-03-02T02:33:59.552Z,94317.19
2018-03-02T02:36:26.116Z,94275.65
2018-03-02T02:38:52.669Z,94299.67
2018-03-02T02:41:19.304Z,94335.93
2018-03-02T02:43:45.863Z,94288.68
2018-03-02T02:46:12.481Z,94365.73
2018-03-02T02:48:39.059Z,94223.33
2018-03-02T02:51:05.615Z,94289.91
2018-03-02T02:53:32.197Z,94336.83
2018-03-02T02:56:01.405Z,94292.66
2018-03-02T02:58:27.969Z,94263.94
2018-03-02T03:00:54.524Z,94306.84
2018-03-02T03:03:21.127Z,94278.40
2018-03-02T03:05:47.684Z,94286.31
2018-03-02T03:08:14.261Z,94296.52
2018-03-02T03:10:40.822Z,94298.22
2018-03-02T03:13:07.375Z,94272.70
2018-03-02T03:15:33.964Z,94268.91
2018-03-02T03:18:00.511Z,94302.66
2018-03-02T03:20:27.095Z,94246.75
2018-03-02T03:22:53.730Z,94272.06
2018-03-02T03:25:20.354Z,94269.40
2018-03-02T03:27:46.919Z,94289.86
2018-03-02T03:30:13.471Z,94256.88
2018-03-02T03:32:40.119Z,94281.67
2018-03-02T03:35:06.700Z,94254.50
2018-03-02T03:37:33.266Z,94272.55
2018-03-02T03:39:59.828Z,94268.09
2018-03-02T03:42:26.523Z,94256.95
2018-03-02T03:44:53.096Z,94271.30
2018-03-02T03:47:19.667Z,94246.93
2018-03-02T03:49:46.226Z,94251.05
2018-03-02T03:52:12.804Z,94246.44
2018-03-02T03:54:39.408Z,94212.64
2018-03-02T03:57:06.028Z,94229.50
2018-03-02T03:59:32.588Z,94263.07
2018-03-02T04:01:59.147Z,94224.48
2018-03-02T04:04:25.733Z,94242.47
2018-03-02T04:06:52.314Z,94227.62
2018-03-02T04:09:18.878Z,94242.38
2018-03-02T04:11:45.434Z,94217.75
2018-03-02T04:14:11.992Z,94243.32
2018-03-02T04:16:38.582Z,94213.08
2018-03-02T04:19:05.144Z,94209.20
2018-03-02T04:21:31.710Z,94228.58
2018-03-02T04:23:58.269Z,94186.28
2018-03-02T04:26:24.818Z,94225.22
2018-03-02T04:28:51.388Z,94215.33
2018-03-02T04:31:17.946Z,94236.09
2018-03-02T04:33:44.498Z,94225.47
2018-03-02T04:36:11.058Z,94225.59
2018-03-02T04:38:37.617Z,94235.81
2018-03-02T04:41:04.200Z,94233.89
2018-03-02T04:43:30.799Z,94212.41
2018-03-02T04:45:57.434Z,94227.66
2018-03-02T04:48:23.991Z,94215.30
2018-03-02T04:50:50.545Z,94193.09
2018-03-02T04:53:17.145Z,94207.58
2018-03-02T04:55:43.750Z,94199.83
2018-03-02T04:58:10.311Z,94183.59
2018-03-02T05:00:36.909Z,94207.09
2018-03-02T05:03:03.521Z,94216.41
2018-03-02T05:05:30.152Z,94206.94
2018-03-02T05:07:56.719Z,94210.60
2018-03-02T05:10:23.275Z,94220.55
2018-03-02T05:12:49.958Z,94225.63
2018-03-02T05:15:16.538Z,94211.31
2018-03-02T05:17:43.149Z,94201.27
2018-03-02T05:20:09.725Z,94208.97
2018-03-02T05:22:36.347Z,94223.36
2018-03-02T05:25:03.021Z,94203.73
2018-03-02T05:27:29.619Z,94200.47
2018-03-02T05:29:56.205Z,94212.34
2018-03-02T05:32:22.825Z,94181.11
2018-03-02T05:34:49.469Z,94209.62
2018-03-02T05:37:16.117Z,94208.86
2018-03-02T05:39:42.675Z,94190.40
2018-03-02T05:42:09.273Z,94213.57
2018-03-02T05:44:35.864Z,94192.14
2018-03-02T05:47:02.476Z,94184.89
2018-03-02T05:49:29.045Z,94223.68
2018-03-02T05:51:55.656Z,94192.24
2018-03-02T05:54:22.352Z,94228.10
2018-03-02T05:56:48.973Z,94209.16
2018-03-02T05:59:15.547Z,94224.19
2018-03-02T06:01:42.104Z,94197.88
2018-03-02T06:04:08.791Z,94219.34
2018-03-02T06:06:35.335Z,94179.17
2018-03-02T06:09:01.951Z,94195.94
2018-03-02T06:11:28.570Z,94162.19
2018-03-02T06:16:57.977Z,94174.68
2018-03-02T06:19:24.584Z,94181.83
2018-03-02T06:21:51.187Z,94203.67
2018-03-02T06:24:17.744Z,94188.11
2018-03-02T06:26:44.456Z,94153.80
2018-03-02T06:29:11.043Z,94182.73
2018-03-02T06:31:37.633Z,94196.81
2018-03-02T06:34:04.334Z,94186.30
2018-03-02T06:38:57.547Z,94156.55
2018-03-02T06:41:24.690Z,94162.95
2018-03-02T06:43:51.195Z,94170.97
2018-03-02T06:46:17.762Z,94150.16
2018-03-02T06:48:44.476Z,94141.19
2018-03-02T06:51:11.082Z,94141.50
2018-03-02T06:53:37.712Z,94159.80
2018-03-02T06:56:04.350Z,94119.59
2018-03-02T06:58:33.014Z,94143.02
2018-03-02T07:00:59.585Z,94138.25
2018-03-02T07:03:26.826Z,94128.42
2018-03-02T07:05:53.361Z,94144.23
2018-03-02T07:08:19.980Z,94082.82
2018-03-02T07:10:46.546Z,94152.08
2018-03-02T07:13:13.128Z,94144.28
2018-03-02T07:15:39.769Z,94128.84
2018-03-02T07:18:06.383Z,94135.80
2018-03-02T07:20:32.984Z,94154.47
2018-03-02T07:22:59.596Z,94145.79
2018-03-02T07:25:26.247Z,94145.31
2018-03-02T07:27:52.897Z,94144.13
2018-03-02T07:30:19.491Z,94148.11
2018-03-02T07:32:46.095Z,94120.21
2018-03-02T07:35:12.691Z,94129.14
2018-03-02T07:37:39.332Z,94121.14
2018-03-02T07:39:18.016Z,93975.07
2018-03-02T07:40:06.085Z,94132.69
2018-03-02T07:41:44.390Z,93969.81
2018-03-02T07:42:32.743Z,94127.84
2018-03-02T07:44:10.388Z,93973.83
2018-03-02T07:44:59.390Z,94115.27
2018-03-02T07:46:36.522Z,93960.27
2018-03-02T07:47:26.069Z,94127.95
2018-03-02T07:49:02.808Z,93977.11
2018-03-02T07:49:52.669Z,94117.81
2018-03-02T07:51:28.864Z,93953.58
2018-03-02T07:52:19.270Z,94104.16
2018-03-02T07:53:55.141Z,93965.89
2018-03-02T07:54:45.897Z,94123.31
2018-03-02T07:57:12.543Z,94122.16
2018-03-02T07:59:39.140Z,94115.28
2018-03-02T08:02:05.871Z,94124.61
2018-03-02T08:04:32.524Z,94119.64
2018-03-02T08:06:59.173Z,94122.75
2018-03-02T08:09:25.840Z,94122.75
2018-03-02T08:11:52.428Z,94125.90
2018-03-02T08:14:19.068Z,94117.53
2018-03-02T08:16:45.694Z,94107.40
2018-03-02T08:19:12.275Z,94122.84
2018-03-02T08:21:39.047Z,94088.19
2018-03-02T08:24:05.714Z,94106.30
2018-03-02T08:26:32.325Z,94098.16
2018-03-02T08:28:58.910Z,94096.74
2018-03-02T08:31:25.494Z,94086.37
2018-03-02T08:33:52.058Z,94107.26
2018-03-02T08:36:18.709Z,94105.11
2018-03-02T08:38:45.372Z,94101.47
2018-03-02T08:41:11.952Z,94099.95
2018-03-02T08:43:38.579Z,94074.92
2018-03-02T08:46:05.420Z,94113.09
2018-03-02T08:48:32.175Z,94097.11
2018-03-02T08:50:58.776Z,94121.16
2018-03-02T08:53:25.444Z,94111.19
2018-03-02T08:55:52.111Z,94086.63
2018-03-02T08:58:18.823Z,94098.08
2018-03-02T09:00:45.394Z,94100.84
2018-03-02T09:03:12.089Z,94097.14
2018-03-02T09:05:38.847Z,94087.48
2018-03-02T09:08:05.424Z,94108.83
2018-03-02T09:10:32.044Z,94059.12
2018-03-02T09:12:58.738Z,94103.00
2018-03-02T09:15:25.426Z,94051.36
2018-03-02T09:17:52.057Z,94071.92
2018-03-02T09:20:18.698Z,94090.56
2018-03-02T09:22:45.334Z,94114.84
2018-03-02T09:25:12.018Z,94048.01
2018-03-02T09:27:38.803Z,94088.84
2018-03-02T09:30:05.494Z,94079.42
2018-03-02T09:32:32.044Z,94075.62
2018-03-02T09:34:58.666Z,94077.80
2018-03-02T09:37:25.442Z,94053.47
2018-03-02T09:39:52.348Z,94053.70
2018-03-02T09:42:18.970Z,94010.74
2018-03-02T09:44:45.631Z,94063.86
2018-03-02T09:47:12.416Z,94060.62
2018-03-02T09:49:41.531Z,94061.88
2018-03-02T09:52:08.172Z,94055.29
2018-03-02T09:54:37.244Z,94079.44
2018-03-02T09:57:06.602Z,94049.79
2018-03-02T09:59:34.222Z,94048.05
2018-03-02T10:02:01.218Z,94048.80
2018-03-02T10:04:29.099Z,94024.00
2018-03-02T10:06:56.295Z,94028.81
2018-03-02T10:09:23.059Z,94014.05
2018-03-02T10:11:49.779Z,94056.63
2018-03-02T10:14:16.408Z,94011.22
2018-03-02T10:16:45.154Z,94045.11
2018-03-02T10:19:11.958Z,94007.94
2018-03-02T10:21:38.614Z,94018.13
2018-03-02T10:24:05.177Z,94029.14
2018-03-02T10:26:31.753Z,94024.45
2018-03-02T10:28:58.509Z,94001.56
2018-03-02T10:31:25.108Z,94009.61
2018-03-02T10:33:51.697Z,94018.06
2018-03-02T10:36:18.296Z,93985.81
2018-03-02T10:38:44.878Z,93982.09
2018-03-02T10:41:11.458Z,93990.40
2018-03-02T10:43:38.097Z,93986.98
2018-03-02T10:46:04.885Z,93977.36
2018-03-02T10:48:31.515Z,93953.69
2018-03-02T10:51:00.572Z,93977.19
2018-03-02T10:53:27.248Z,93958.63
2018-03-02T10:55:54.058Z,93973.38
2018-03-02T10:58:20.650Z,93952.11
2018-03-02T11:00:47.258Z,93967.84
2018-03-02T11:03:13.981Z,93908.70
2018-03-02T11:05:40.835Z,93917.72
2018-03-02T11:08:07.531Z,93958.44
2018-03-02T11:10:34.232Z,93920.53
2018-03-02T11:13:00.965Z,93918.23
2018-03-02T11:15:27.625Z,93940.56
2018-03-02T11:17:54.250Z,93920.09
2018-03-02T11:20:20.841Z,93905.30
2018-03-02T11:22:47.454Z,93911.23
2018-03-02T11:25:14.053Z,93882.31
2018-03-02T11:27:40.686Z,93910.23
2018-03-02T11:30:07.315Z,93894.17
2018-03-02T11:32:33.904Z,93914.77
2018-03-02T11:35:01.528Z,93912.47
2018-03-02T11:37:28.147Z,93893.81
2018-03-02T11:39:54.734Z,93884.79
2018-03-02T11:42:21.324Z,93875.69
2018-03-02T11:44:47.904Z,93880.36
2018-03-02T11:47:14.582Z,93844.98
2018-03-02T11:49:41.218Z,93854.86
2018-03-02T11:52:07.762Z,93856.59
2018-03-02T11:54:34.798Z,93850.30
2018-03-02T11:57:01.369Z,93887.69
2018-03-02T11:59:27.994Z,93845.27
2018-03-02T12:01:54.592Z,93869.98
2018-03-02T12:04:21.160Z,93824.56
2018-03-02T12:06:47.753Z,93873.63
2018-03-02T12:09:14.323Z,93848.70
2018-03-02T12:11:40.964Z,93836.77
2018-03-02T12:14:07.592Z,93851.14
2018-03-02T12:16:34.191Z,93840.62
2018-03-02T12:19:00.820Z,93841.64
2018-03-02T12:21:27.547Z,93838.95
2018-03-02T12:23:54.167Z,93832.63
2018-03-02T12:26:20.822Z,93823.98
2018-03-02T12:28:47.410Z,93822.72
2018-03-02T12:31:14.117Z,93799.09
2018-03-02T12:33:40.701Z,93804.92
2018-03-02T12:36:07.257Z,93800.39
2018-03-02T12:38:33.883Z,93781.19
2018-03-02T12:41:00.440Z,93797.54
2018-03-02T12:43:27.064Z,93802.58
2018-03-02T12:45:53.728Z,93781.52
2018-03-02T12:48:20.308Z,93781.29
2018-03-02T12:50:46.917Z,93752.23
2018-03-02T12:53:13.544Z,93780.98
2018-03-02T12:55:40.267Z,93747.50
2018-03-02T12:58:06.853Z,93776.27
2018-03-02T13:00:33.457Z,93719.84
2018-03-02T13:03:00.166Z,93727.81
2018-03-02T13:05:26.705Z,93711.47
2018-03-02T13:07:55.777Z,93774.30
2018-03-02T13:10:22.490Z,93683.52
2018-03-02T13:12:49.331Z,93732.34
2018-03-02T13:15:15.915Z,93726.15
2018-03-02T13:17:42.577Z,93738.72
2018-03-02T13:20:09.205Z,93721.65
2018-03-02T13:22:35.865Z,93726.59
2018-03-02T13:25:02.637Z,93722.70
2018-03-02T13:27:29.227Z,93733.04
2018-03-02T13:30:04.782Z,93730.40
2018-03-02T13:32:32.700Z,93732.37
2018-03-02T13:34:58.095Z,93714.88
2018-03-02T13:37:24.769Z,93741.22
2018-03-02T13:39:51.359Z,93702.22
2018-03-02T13:42:17.965Z,93717.78
2018-03-02T13:44:44.660Z,93696.78
2018-03-02T13:47:11.245Z,93707.02
2018-03-02T13:49:37.837Z,93693.06
2018-03-02T13:52:04.475Z,93711.79
2018-03-02T13:54:31.074Z,93691.45
2018-03-02T13:56:57.712Z,93656.70
2018-03-02T13:59:34.429Z,93696.59
2018-03-02T14:02:01.116Z,93690.66
2018-03-02T14:04:27.729Z,93681.83
2018-03-02T14:06:54.342Z,93715.04
2018-03-02T14:09:21.018Z,93701.31
2018-03-02T14:11:47.639Z,93686.67
2018-03-02T14:14:14.439Z,93666.95
2018-03-02T14:16:41.048Z,93684.91
2018-03-02T14:19:07.674Z,93697.02
2018-03-02T14:21:34.265Z,93700.63
2018-03-02T14:24:00.831Z,93685.34
2018-03-02T14:26:27.452Z,93689.98
2018-03-02T14:28:54.049Z,93634.67
2018-03-02T14:31:20.626Z,93693.19
2018-03-02T14:33:47.264Z,93701.64
2018-03-02T14:36:13.867Z,93642.19
2018-03-02T14:38:40.469Z,93669.26
2018-03-02T14:41:07.079Z,93613.20
2018-03-02T14:43:33.660Z,93648.81
2018-03-02T14:46:00.564Z,93673.66
2018-03-02T14:48:27.124Z,93648.30
2018-03-02T14:50:53.696Z,93659.70
2018-03-02T14:53:20.544Z,93621.44
2018-03-02T14:55:47.149Z,93639.81
2018-03-02T14:58:13.775Z,93650.97
2018-03-02T15:00:40.381Z,93643.55
2018-03-02T15:03:06.959Z,93659.39
2018-03-02T15:05:33.658Z,93623.56
2018-03-02T15:08:00.323Z,93640.80
2018-03-02T15:10:26.978Z,93613.20
2018-03-02T15:12:53.588Z,93623.27
2018-03-02T15:15:20.209Z,93630.00
2018-03-02T15:17:46.873Z,93628.19
2018-03-02T15:20:13.381Z,93642.99
2018-03-02T15:22:40.090Z,93570.02
2018-03-02T15:25:06.704Z,93636.90
2018-03-02T15:27:33.266Z,93615.20
2018-03-02T15:29:59.834Z,93600.33
2018-03-02T15:32:26.454Z,93626.48
2018-03-02T15:34:53.041Z,93595.15
2018-03-02T15:37:19.611Z,93602.10
2018-03-02T15:39:46.192Z,93601.61
2018-03-02T15:42:12.817Z,93607.25
2018-03-02T15:44:39.384Z,93612.80
2018-03-02T15:47:05.982Z,93596.10
2018-03-02T15:49:32.640Z,93645.97
2018-03-02T15:51:59.144Z,93589.97
2018-03-02T15:54:25.750Z,93577.09
2018-03-02T15:56:52.313Z,93647.97
2018-03-02T15:59:18.921Z,93547.64
2018-03-02T16:01:45.510Z,93615.45
2018-03-02T16:04:12.068Z,93606.17
2018-03-02T16:06:38.685Z,93582.22
2018-03-02T16:09:05.248Z,93614.27
2018-03-02T16:11:31.863Z,93624.41
2018-03-02T16:13:58.427Z,93573.36
2018-03-02T16:16:25.042Z,93604.95
2018-03-02T16:18:51.605Z,93613.19
2018-03-02T16:21:18.228Z,93597.20
2018-03-02T16:23:44.832Z,93611.14
2018-03-02T16:26:11.435Z,93598.75
2018-03-02T16:28:38.029Z,93605.64
2018-03-02T16:31:04.589Z,93586.25
2018-03-02T16:33:31.169Z,93594.09
2018-03-02T16:35:57.727Z,93601.84
2018-03-02T16:38:24.297Z,93569.98
2018-03-02T16:40:50.885Z,93567.45
2018-03-02T16:43:17.522Z,93537.02
2018-03-02T16:45:44.080Z,93570.11
2018-03-02T16:48:10.714Z,93526.55
2018-03-02T16:50:37.379Z,93578.66
2018-03-02T16:53:04.025Z,93551.11
2018-03-02T16:55:30.646Z,93573.19
2018-03-02T16:57:57.228Z,93571.61
2018-03-02T17:00:23.896Z,93560.95
2018-03-02T17:02:50.491Z,93563.48
2018-03-02T17:05:17.068Z,93568.33
2018-03-02T17:07:43.671Z,93552.45
2018-03-02T17:10:10.290Z,93560.09
2018-03-02T17:12:36.863Z,93562.58
2018-03-02T17:15:03.500Z,93572.55
2018-03-02T17:17:30.078Z,93544.55
2018-03-02T17:19:56.637Z,93573.02
2018-03-02T17:22:23.202Z,93568.88
2018-03-02T17:24:49.775Z,93556.02
2018-03-02T17:27:16.331Z,93561.66
2018-03-02T17:29:42.930Z,93555.77
2018-03-02T17:32:09.508Z,93557.75
2018-03-02T17:34:36.112Z,93593.66
2018-03-02T17:37:02.682Z,93562.18
2018-03-02T17:39:29.243Z,93564.50
2018-03-02T17:41:55.808Z,93575.09
2018-03-02T17:44:22.367Z,93571.45
2018-03-02T17:46:48.923Z,93546.08
2018-03-02T17:49:15.531Z,93556.16
2018-03-02T17:51:42.158Z,93516.08
2018-03-02T17:54:08.762Z,93545.16
2018-03-02T17:56:35.353Z,93531.25
2018-03-02T17:59:01.950Z,93547.87
2018-03-02T18:01:28.555Z,93561.61
2018-03-02T18:03:55.112Z,93573.64
2018-03-02T18:06:21.668Z,93561.08
2018-03-02T18:08:48.223Z,93571.81
2018-03-02T18:11:14.777Z,93546.78
2018-03-02T18:13:41.336Z,93558.09
2018-03-02T18:16:07.949Z,93559.56
2018-03-02T18:18:34.503Z,93547.40
2018-03-02T18:21:01.064Z,93549.30
2018-03-02T18:23:27.676Z,93535.92
2018-03-02T18:25:54.237Z,93539.89
2018-03-02T18:28:20.805Z,93539.80
2018-03-02T18:30:47.374Z,93530.53
2018-03-02T18:33:13.934Z,93555.46
2018-03-02T18:35:40.492Z,93552.08
2018-03-02T18:38:07.056Z,93547.02
2018-03-02T18:40:33.615Z,93531.70
2018-03-02T18:43:00.218Z,93539.29
2018-03-02T18:45:26.789Z,93518.67
2018-03-02T18:47:53.388Z,93513.45
2018-03-02T18:50:21.124Z,93529.89
2018-03-02T18:52:47.682Z,93507.13
2018-03-02T18:55:14.244Z,93503.56
2018-03-02T18:57:40.803Z,93530.41
2018-03-02T19:00:07.366Z,93516.42
2018-03-02T19:02:33.955Z,93510.77
2018-03-02T19:05:00.528Z,93511.95
2018-03-02T19:07:27.159Z,93511.86
2018-03-02T19:09:53.714Z,93507.98
2018-03-02T19:12:20.277Z,93483.09
2018-03-02T19:14:46.845Z,93491.52
2018-03-02T19:17:13.427Z,93512.85
2018-03-02T19:19:40.003Z,93514.52
2018-03-02T19:22:06.637Z,93501.02
2018-03-02T19:24:33.219Z,93511.67
2018-03-02T19:26:59.825Z,93505.83
2018-03-02T19:29:26.490Z,93469.22
2018-03-02T19:31:53.154Z,93498.33
2018-03-02T19:34:19.821Z,93504.02
2018-03-02T19:36:46.464Z,93514.36
2018-03-02T19:39:13.151Z,93521.14
2018-03-02T19:41:39.892Z,93497.55
2018-03-02T19:44:06.533Z,93518.94
2018-03-02T19:46:33.156Z,93500.30
2018-03-02T19:48:59.798Z,93511.20
2018-03-02T19:51:26.413Z,93482.38
2018-03-02T19:53:53.103Z,93502.91
2018-03-02T19:56:19.715Z,93491.45
2018-03-02T19:58:46.380Z,93488.77
2018-03-02T20:01:12.997Z,93488.62
2018-03-02T20:03:39.667Z,93462.70
2018-03-02T20:06:06.311Z,93493.60
2018-03-02T20:08:32.897Z,93494.06
2018-03-02T20:10:59.543Z,93467.13
2018-03-02T20:13:26.137Z,93477.25
2018-03-02T20:15:52.764Z,93472.58
2018-03-02T20:18:19.353Z,93453.16
2018-03-02T20:20:46.012Z,93472.83
2018-03-02T20:23:12.619Z,93465.95
2018-03-02T20:25:39.175Z,93451.41
2018-03-02T20:28:05.735Z,93459.23
2018-03-02T20:30:32.341Z,93449.69
2018-03-02T20:32:58.963Z,93427.91
2018-03-02T20:35:25.593Z,93449.60
2018-03-02T20:37:52.162Z,93431.28
2018-03-02T20:40:18.764Z,93411.46
2018-03-02T20:42:45.375Z,93438.09
2018-03-02T20:45:11.954Z,93409.33
2018-03-02T20:47:38.620Z,93406.81
2018-03-02T20:50:05.179Z,93370.51
2018-03-02T20:52:31.778Z,93391.15
2018-03-02T20:54:58.357Z,93409.79
2018-03-02T20:57:24.962Z,93420.47
2018-03-02T20:59:51.528Z,93447.34
2018-03-02T21:02:18.092Z,93399.83
2018-03-02T21:04:44.693Z,93381.30
2018-03-02T21:07:11.303Z,93366.65
2018-03-02T21:09:37.916Z,93409.88
2018-03-02T21:12:04.491Z,93366.58
2018-03-02T21:14:31.046Z,93377.48
2018-03-02T21:16:57.661Z,93369.20
2018-03-02T21:19:24.240Z,93378.50
2018-03-02T21:21:50.801Z,93392.81
2018-03-02T21:24:17.403Z,93360.81
2018-03-02T21:26:44.008Z,93372.19
2018-03-02T21:29:10.616Z,93344.31
2018-03-02T21:31:37.243Z,93351.73
2018-03-02T21:34:03.806Z,93327.73
2018-03-02T21:36:30.403Z,93354.66
2018-03-02T21:38:57.031Z,93374.80
2018-03-02T21:41:23.646Z,93366.35
2018-03-02T21:43:50.256Z,93354.92
2018-03-02T21:46:16.861Z,93351.88
2018-03-02T21:48:43.379Z,93336.09
2018-03-02T21:51:09.964Z,93328.03
2018-03-02T21:53:36.592Z,93337.14
2018-03-02T21:56:03.187Z,93336.94
2018-03-02T21:58:29.780Z,93295.41
2018-03-02T22:00:56.352Z,93316.11
2018-03-02T22:03:22.984Z,93269.58
2018-03-02T22:05:49.541Z,93291.19
2018-03-02T22:08:16.093Z,93309.16
2018-03-02T22:10:42.662Z,93295.70
2018-03-02T22:13:09.223Z,93287.91
2018-03-02T22:15:35.824Z,93289.22
2018-03-02T22:18:02.410Z,93307.10
2018-03-02T22:20:28.974Z,93252.73
2018-03-02T22:22:55.539Z,93273.79
2018-03-02T22:25:22.122Z,93328.36
2018-03-02T22:27:48.734Z,93282.08
2018-03-02T22:30:15.306Z,93230.03
2018-03-02T22:32:41.967Z,93267.53
2018-03-02T22:35:08.545Z,93302.84
2018-03-02T22:37:35.116Z,93295.11
2018-03-02T22:40:01.727Z,93257.12
2018-03-02T22:42:28.338Z,93286.27
2018-03-02T22:44:54.913Z,93263.37
2018-03-02T22:47:21.481Z,93222.97
2018-03-02T22:49:48.082Z,93271.56
2018-03-02T22:52:14.650Z,93270.22
2018-03-02T22:54:41.205Z,93221.86
2018-03-02T22:57:07.802Z,93272.52
2018-03-02T22:59:34.407Z,93271.27
2018-03-02T23:02:00.993Z,93211.96
2018-03-02T23:04:27.569Z,93256.50
2018-03-02T23:06:54.241Z,93263.84
2018-03-02T23:09:20.805Z,93252.30
2018-03-02T23:11:47.380Z,93274.64
2018-03-02T23:14:13.973Z,93273.69
2018-03-02T23:16:40.530Z,93261.02
2018-03-02T23:19:07.149Z,93264.30
2018-03-02T23:21:33.719Z,93250.41
2018-03-02T23:24:00.301Z,93274.97
2018-03-02T23:26:26.859Z,93277.33
2018-03-02T23:28:53.466Z,93248.44
2018-03-02T23:31:20.036Z,93245.20
2018-03-02T23:33:46.705Z,93260.41
2018-03-02T23:36:13.295Z,93274.80
2018-03-02T23:38:39.933Z,93267.77
2018-03-02T23:41:06.572Z,93248.05
2018-03-02T23:43:33.135Z,93251.03
2018-03-02T23:45:59.752Z,93248.44
2018-03-02T23:48:26.318Z,93209.34
2018-03-02T23:50:52.885Z,93222.70
2018-03-02T23:53:19.464Z,93231.61
2018-03-02T23:55:46.078Z,93229.94
2018-03-02T23:58:12.632Z,93223.55
